createdAt,value
2022-09-26T00:01:19.438Z,44.80
2022-09-26T00:03:50.739Z,44.80
2022-09-26T00:06:18.043Z,44.80
2022-09-26T00:08:45.455Z,44.80
2022-09-26T00:11:13.082Z,44.80
2022-09-26T00:13:40.610Z,44.80
2022-09-26T00:16:07.642Z,44.80
2022-09-26T00:18:34.379Z,44.80
2022-09-26T00:21:08.637Z,44.70
2022-09-26T00:23:35.538Z,44.70
2022-09-26T00:26:02.319Z,44.80
2022-09-26T00:28:30.056Z,44.80
2022-09-26T00:30:56.850Z,44.80
2022-09-26T00:33:24.120Z,44.80
2022-09-26T00:35:51.675Z,44.80
2022-09-26T00:38:18.652Z,44.80
2022-09-26T00:40:46.163Z,44.70
2022-09-26T00:43:34.484Z,44.70
2022-09-26T00:46:26.212Z,44.70
2022-09-26T00:48:59.707Z,44.70
2022-09-26T00:51:26.347Z,44.80
2022-09-26T00:53:53.239Z,44.80
2022-09-26T00:56:23.466Z,44.80
2022-09-26T00:59:01.060Z,44.70
2022-09-26T01:01:27.915Z,44.80
2022-09-26T01:03:54.601Z,44.70
2022-09-26T01:06:21.490Z,44.70
2022-09-26T01:08:58.983Z,44.70
2022-09-26T01:11:25.787Z,44.80
2022-09-26T01:13:52.810Z,44.80
2022-09-26T01:16:19.628Z,44.70
2022-09-26T01:18:46.385Z,44.70
2022-09-26T01:21:37.627Z,44.80
2022-09-26T01:24:10.518Z,44.80
2022-09-26T01:26:49.945Z,44.70
2022-09-26T01:30:04.336Z,44.70
2022-09-26T01:32:50.348Z,44.70
2022-09-26T01:35:19.192Z,44.70
2022-09-26T01:37:59.529Z,44.70
2022-09-26T01:40:43.759Z,44.70
2022-09-26T01:43:15.770Z,44.70
2022-09-26T01:45:45.056Z,44.70
2022-09-26T01:48:19.345Z,44.80
2022-09-26T01:50:55.496Z,44.70
2022-09-26T01:53:26.805Z,44.80
2022-09-26T01:56:05.065Z,44.70
2022-09-26T01:58:34.952Z,44.80
2022-09-26T02:01:03.961Z,44.70
2022-09-26T02:03:32.087Z,44.70
2022-09-26T02:06:08.273Z,44.70
2022-09-26T02:08:45.532Z,44.80
2022-09-26T02:11:19.997Z,44.70
2022-09-26T02:13:56.920Z,44.70
2022-09-26T02:16:38.382Z,44.70
2022-09-26T02:19:17.180Z,44.70
2022-09-26T02:21:43.939Z,44.70
2022-09-26T02:24:10.630Z,44.70
2022-09-26T02:26:37.211Z,44.70
2022-09-26T02:29:04.480Z,44.70
2022-09-26T02:31:33.225Z,44.70
2022-09-26T02:33:59.999Z,44.60
2022-09-26T02:36:26.951Z,44.70
2022-09-26T02:38:53.639Z,44.70
2022-09-26T02:41:59.224Z,44.70
2022-09-26T02:44:53.146Z,44.70
2022-09-26T02:47:28.059Z,44.70
2022-09-26T02:50:25.381Z,44.60
2022-09-26T02:53:12.719Z,44.70
2022-09-26T02:56:06.997Z,44.60
2022-09-26T02:58:45.642Z,44.60
2022-09-26T03:01:24.965Z,44.60
2022-09-26T03:04:05.417Z,44.70
2022-09-26T03:06:37.480Z,44.70
2022-09-26T03:09:04.154Z,44.70
2022-09-26T03:11:30.736Z,44.70
2022-09-26T03:13:57.404Z,44.70
2022-09-26T03:16:25.062Z,44.80
2022-09-26T03:18:56.588Z,44.80
2022-09-26T03:21:23.203Z,44.70
2022-09-26T03:23:50.304Z,44.70
2022-09-26T03:26:19.407Z,44.70
2022-09-26T03:28:46.224Z,44.70
2022-09-26T03:31:13.019Z,44.60
2022-09-26T03:33:40.424Z,44.70
2022-09-26T03:36:12.264Z,44.70
2022-09-26T03:38:39.032Z,44.70
2022-09-26T03:41:06.024Z,44.70
2022-09-26T03:43:32.645Z,44.60
2022-09-26T03:46:06.203Z,44.60
2022-09-26T03:48:33.527Z,44.70
2022-09-26T03:51:08.307Z,44.70
2022-09-26T03:53:35.812Z,44.60
2022-09-26T03:56:09.312Z,44.70
2022-09-26T03:58:36.148Z,44.60
2022-09-26T04:01:13.756Z,44.70
2022-09-26T04:03:45.202Z,44.60
2022-09-26T04:06:19.255Z,44.60
2022-09-26T04:08:47.422Z,44.70
2022-09-26T04:11:15.041Z,44.60
2022-09-26T04:13:57.392Z,44.60
2022-09-26T04:16:24.568Z,44.60
2022-09-26T04:18:56.569Z,44.60
2022-09-26T04:21:23.869Z,44.70
2022-09-26T04:23:50.480Z,44.60
2022-09-26T04:26:23.700Z,44.70
2022-09-26T04:28:52.056Z,44.90
2022-09-26T04:31:18.698Z,44.80
2022-09-26T04:33:45.337Z,44.10
2022-09-26T04:36:12.612Z,43.00
2022-09-26T04:38:39.316Z,41.80
2022-09-26T04:41:06.441Z,40.50
2022-09-26T04:43:33.106Z,39.20
2022-09-26T04:45:59.741Z,37.90
2022-09-26T04:48:26.715Z,36.60
2022-09-26T04:50:53.422Z,35.50
2022-09-26T04:53:19.983Z,34.50
2022-09-26T04:55:47.218Z,33.70
2022-09-26T04:58:14.407Z,32.90
2022-09-26T05:00:47.360Z,32.20
2022-09-26T05:03:14.317Z,31.40
2022-09-26T05:05:41.463Z,30.90
2022-09-26T05:08:09.397Z,30.40
2022-09-26T05:10:36.169Z,30.10
2022-09-26T05:13:03.353Z,30.00
2022-09-26T05:15:30.419Z,30.00
2022-09-26T05:17:59.366Z,30.00
2022-09-26T05:20:31.829Z,29.70
2022-09-26T05:22:58.651Z,29.20
2022-09-26T05:25:43.968Z,28.70
2022-09-26T05:28:10.571Z,28.40
2022-09-26T05:30:37.252Z,28.00
2022-09-26T05:33:04.660Z,27.70
2022-09-26T05:35:35.171Z,27.30
2022-09-26T05:38:02.688Z,27.60
2022-09-26T05:40:48.121Z,27.00
2022-09-26T05:43:14.788Z,26.80
2022-09-26T05:45:41.389Z,26.70
2022-09-26T05:48:07.976Z,26.80
2022-09-26T05:50:34.679Z,26.80
2022-09-26T05:53:01.663Z,25.50
2022-09-26T05:55:28.841Z,25.60
2022-09-26T05:57:58.372Z,26.10
2022-09-26T06:00:27.999Z,26.40
2022-09-26T06:02:58.432Z,26.30
2022-09-26T06:05:25.669Z,26.60
2022-09-26T06:07:52.798Z,26.90
2022-09-26T06:10:20.055Z,27.20
2022-09-26T06:12:50.803Z,27.50
2022-09-26T06:15:17.895Z,27.90
2022-09-26T06:17:44.967Z,27.90
2022-09-26T06:20:12.242Z,27.80
2022-09-26T06:22:40.261Z,27.80
2022-09-26T06:25:08.283Z,26.90
2022-09-26T06:27:38.532Z,27.00
2022-09-26T06:30:08.698Z,27.20
2022-09-26T06:32:39.106Z,27.10
2022-09-26T06:35:06.724Z,27.00
2022-09-26T06:37:33.463Z,26.90
2022-09-26T06:40:00.724Z,26.80
2022-09-26T06:42:27.387Z,26.70
2022-09-26T06:44:54.102Z,26.60
2022-09-26T06:47:20.764Z,26.50
2022-09-26T06:49:48.386Z,26.50
2022-09-26T06:52:14.981Z,26.50
2022-09-26T06:54:41.986Z,26.50
2022-09-26T06:57:14.247Z,26.80
2022-09-26T06:59:41.602Z,27.10
2022-09-26T07:02:09.427Z,27.10
2022-09-26T07:04:36.606Z,26.90
2022-09-26T07:07:04.438Z,26.80
2022-09-26T07:09:31.159Z,26.60
2022-09-26T07:12:15.128Z,26.50
2022-09-26T07:14:42.579Z,26.10
2022-09-26T07:17:13.782Z,25.30
2022-09-26T07:19:40.346Z,25.50
2022-09-26T07:22:07.938Z,25.60
2022-09-26T07:24:34.952Z,25.70
2022-09-26T07:27:02.061Z,25.70
2022-09-26T07:29:29.049Z,25.80
2022-09-26T07:31:55.847Z,25.80
2022-09-26T07:34:25.856Z,25.90
2022-09-26T07:36:52.859Z,25.90
2022-09-26T07:39:19.477Z,25.90
2022-09-26T07:41:46.644Z,26.00
2022-09-26T07:47:19.719Z,26.10
2022-09-26T07:50:05.060Z,26.50
2022-09-26T07:52:31.718Z,26.50
2022-09-26T07:54:58.290Z,26.50
2022-09-26T07:57:24.958Z,26.50
2022-09-26T07:59:51.665Z,26.50
2022-09-26T08:02:25.934Z,26.50
2022-09-26T08:05:00.254Z,26.40
2022-09-26T08:07:27.869Z,26.40
2022-09-26T08:09:54.676Z,26.30
2022-09-26T08:12:21.296Z,26.30
2022-09-26T08:14:49.104Z,26.30
2022-09-26T08:17:16.462Z,26.20
2022-09-26T08:19:43.186Z,26.10
2022-09-26T08:22:10.155Z,26.30
2022-09-26T08:24:37.171Z,26.30
2022-09-26T08:27:03.881Z,26.60
2022-09-26T08:29:34.122Z,26.80
2022-09-26T08:32:03.016Z,27.00
2022-09-26T08:34:32.095Z,27.20
2022-09-26T08:36:59.023Z,27.50
2022-09-26T08:39:28.046Z,27.80
2022-09-26T08:42:19.059Z,28.00
2022-09-26T08:45:32.452Z,28.30
2022-09-26T08:48:13.692Z,28.60
2022-09-26T08:50:51.865Z,28.90
2022-09-26T08:53:27.061Z,29.30
2022-09-26T08:55:53.820Z,29.60
2022-09-26T08:58:29.070Z,30.00
2022-09-26T09:00:59.138Z,30.20
2022-09-26T09:03:44.828Z,30.70
2022-09-26T09:06:12.498Z,30.80
2022-09-26T09:08:40.108Z,30.70
2022-09-26T09:11:25.840Z,30.50
2022-09-26T09:14:12.670Z,30.30
2022-09-26T09:16:53.143Z,30.00
2022-09-26T09:19:57.574Z,30.00
2022-09-26T09:22:31.478Z,30.10
2022-09-26T09:25:03.466Z,29.90
2022-09-26T09:28:03.977Z,29.50
2022-09-26T09:30:50.388Z,29.20
2022-09-26T09:33:23.435Z,28.90
2022-09-26T09:35:59.742Z,28.40
2022-09-26T09:38:28.287Z,28.00
2022-09-26T09:41:14.633Z,27.70
2022-09-26T09:44:00.591Z,27.40
2022-09-26T09:46:29.349Z,27.40
2022-09-26T09:49:08.119Z,27.10
2022-09-26T09:51:44.406Z,27.00
2022-09-26T09:54:48.623Z,27.00
2022-09-26T09:57:37.827Z,27.30
2022-09-26T10:00:17.278Z,27.20
2022-09-26T10:03:21.490Z,27.40
2022-09-26T10:05:50.274Z,27.60
2022-09-26T10:08:37.534Z,27.80
2022-09-26T10:11:23.021Z,28.10
2022-09-26T10:13:53.662Z,28.40
2022-09-26T10:16:22.597Z,28.60
2022-09-26T10:19:21.110Z,28.80
2022-09-26T10:21:48.567Z,29.00
2022-09-26T10:24:41.113Z,29.50
2022-09-26T10:27:18.942Z,29.70
2022-09-26T10:29:45.619Z,30.00
2022-09-26T10:32:12.355Z,30.40
2022-09-26T10:34:39.378Z,30.60
2022-09-26T10:37:22.386Z,30.80
2022-09-26T10:40:15.061Z,31.10
2022-09-26T10:42:46.559Z,31.60
2022-09-26T10:45:20.219Z,32.00
2022-09-26T10:47:46.854Z,32.50
2022-09-26T10:50:18.244Z,32.50
2022-09-26T10:52:51.236Z,32.50
2022-09-26T10:55:25.506Z,32.80
2022-09-26T10:57:57.855Z,31.70
2022-09-26T11:00:33.789Z,31.30
2022-09-26T11:03:00.699Z,30.90
2022-09-26T11:05:46.161Z,30.60
2022-09-26T11:08:14.072Z,30.30
2022-09-26T11:10:42.011Z,30.00
2022-09-26T11:13:24.040Z,29.80
2022-09-26T11:16:11.099Z,29.60
2022-09-26T11:19:07.808Z,29.60
2022-09-26T11:22:08.325Z,29.40
2022-09-26T11:24:59.391Z,29.30
2022-09-26T11:27:38.528Z,29.30
2022-09-26T11:30:09.505Z,29.40
2022-09-26T11:32:43.255Z,29.50
2022-09-26T11:35:13.474Z,29.70
2022-09-26T11:37:50.842Z,29.90
2022-09-26T11:40:20.707Z,30.00
2022-09-26T11:43:17.421Z,30.30
2022-09-26T11:45:57.345Z,30.50
2022-09-26T11:48:33.012Z,30.90
2022-09-26T11:51:12.277Z,31.30
2022-09-26T11:54:09.492Z,31.20
2022-09-26T11:56:45.310Z,31.50
2022-09-26T11:59:18.718Z,31.90
2022-09-26T12:01:55.828Z,32.40
2022-09-26T12:04:49.831Z,32.70
2022-09-26T12:07:22.274Z,33.20
2022-09-26T12:10:08.159Z,33.60
2022-09-26T12:12:44.039Z,33.60
2022-09-26T12:15:20.159Z,33.90
2022-09-26T12:17:59.615Z,33.70
2022-09-26T12:20:28.397Z,33.40
2022-09-26T12:23:09.840Z,33.20
2022-09-26T12:25:48.005Z,33.00
2022-09-26T12:28:26.947Z,32.80
2022-09-26T12:31:19.313Z,32.40
2022-09-26T12:34:08.084Z,32.30
2022-09-26T12:36:48.923Z,32.30
2022-09-26T12:40:09.314Z,32.40
2022-09-26T12:43:14.698Z,32.40
2022-09-26T12:46:03.255Z,31.40
2022-09-26T12:48:32.788Z,30.80
2022-09-26T12:51:28.689Z,30.10
2022-09-26T12:54:10.347Z,30.00
2022-09-26T12:56:54.595Z,29.60
2022-09-26T12:59:35.308Z,29.60
2022-09-26T13:02:13.630Z,29.30
2022-09-26T13:05:06.253Z,29.20
2022-09-26T13:08:07.172Z,29.30
2022-09-26T13:10:48.058Z,29.20
2022-09-26T13:13:18.093Z,29.20
2022-09-26T13:16:23.728Z,29.20
2022-09-26T13:19:02.133Z,29.40
2022-09-26T13:21:44.775Z,29.60
2022-09-26T13:24:18.845Z,29.80
2022-09-26T13:26:54.097Z,30.30
2022-09-26T13:29:29.087Z,30.20
2022-09-26T13:32:36.629Z,30.80
2022-09-26T13:35:08.071Z,30.70
2022-09-26T13:38:04.005Z,31.30
2022-09-26T13:41:04.254Z,31.50
2022-09-26T13:43:53.393Z,31.90
2022-09-26T13:46:26.875Z,32.40
2022-09-26T13:49:00.788Z,32.90
2022-09-26T13:51:40.475Z,33.20
2022-09-26T13:54:24.242Z,33.50
2022-09-26T13:56:50.999Z,33.20
2022-09-26T13:59:23.328Z,33.70
2022-09-26T14:02:18.004Z,34.10
2022-09-26T14:04:45.967Z,34.00
2022-09-26T14:07:32.159Z,34.50
2022-09-26T14:10:01.964Z,34.70
2022-09-26T14:12:51.503Z,34.90
2022-09-26T14:15:24.135Z,35.30
2022-09-26T14:17:50.813Z,35.50
2022-09-26T14:20:20.233Z,35.50
2022-09-26T14:22:51.261Z,35.80
2022-09-26T14:25:46.138Z,35.70
2022-09-26T14:28:34.188Z,34.90
2022-09-26T14:31:16.021Z,34.40
2022-09-26T14:33:43.013Z,34.70
2022-09-26T14:36:33.461Z,34.40
2022-09-26T14:39:00.107Z,34.60
2022-09-26T14:41:28.527Z,34.90
2022-09-26T14:44:04.179Z,34.80
2022-09-26T14:46:35.507Z,34.30
2022-09-26T14:49:05.220Z,33.20
2022-09-26T14:51:37.093Z,32.50
2022-09-26T14:54:19.208Z,32.00
2022-09-26T14:56:50.262Z,31.60
2022-09-26T14:59:16.915Z,30.80
2022-09-26T15:01:43.981Z,30.30
2022-09-26T15:04:20.875Z,30.10
2022-09-26T15:06:50.178Z,30.00
2022-09-26T15:09:47.689Z,29.60
2022-09-26T15:12:39.899Z,29.60
2022-09-26T15:15:33.775Z,29.60
2022-09-26T15:18:08.156Z,29.80
2022-09-26T15:20:39.399Z,29.70
2022-09-26T15:23:23.752Z,29.90
2022-09-26T15:25:51.103Z,30.00
2022-09-26T15:28:18.750Z,30.10
2022-09-26T15:30:45.698Z,30.40
2022-09-26T15:33:18.673Z,30.70
2022-09-26T15:35:54.517Z,31.00
2022-09-26T15:38:21.101Z,31.20
2022-09-26T15:41:00.294Z,31.70
2022-09-26T15:43:27.092Z,31.80
2022-09-26T15:45:58.523Z,32.30
2022-09-26T15:48:25.461Z,32.50
2022-09-26T15:50:53.869Z,32.80
2022-09-26T15:53:42.636Z,33.10
2022-09-26T15:56:12.642Z,33.40
2022-09-26T15:58:54.344Z,33.70
2022-09-26T16:01:21.884Z,33.80
2022-09-26T16:03:57.097Z,34.10
2022-09-26T16:06:52.859Z,34.40
2022-09-26T16:09:37.729Z,34.30
2022-09-26T16:12:16.322Z,34.80
2022-09-26T16:15:11.213Z,35.00
2022-09-26T16:17:49.110Z,35.30
2022-09-26T16:20:16.010Z,35.60
2022-09-26T16:22:45.560Z,35.80
2022-09-26T16:25:18.627Z,36.10
2022-09-26T16:27:52.341Z,36.20
2022-09-26T16:30:28.162Z,36.40
2022-09-26T16:33:04.845Z,36.60
2022-09-26T16:35:33.374Z,36.80
2022-09-26T16:38:00.635Z,36.90
2022-09-26T16:40:28.116Z,37.10
2022-09-26T16:43:02.710Z,37.20
2022-09-26T16:45:29.285Z,37.40
2022-09-26T16:47:55.940Z,37.60
2022-09-26T16:50:33.075Z,37.80
2022-09-26T16:53:00.254Z,37.90
2022-09-26T16:55:27.198Z,38.00
2022-09-26T16:57:55.739Z,38.10
2022-09-26T17:00:42.935Z,38.30
2022-09-26T17:03:23.328Z,38.40
2022-09-26T17:05:50.644Z,38.40
2022-09-26T17:08:18.345Z,38.60
2022-09-26T17:10:45.563Z,38.70
2022-09-26T17:13:22.572Z,38.90
2022-09-26T17:15:50.427Z,38.90
2022-09-26T17:18:19.804Z,38.90
2022-09-26T17:20:46.437Z,39.10
2022-09-26T17:23:35.324Z,39.20
2022-09-26T17:25:59.966Z,39.30
2022-09-26T17:28:30.371Z,39.30
2022-09-26T17:30:57.901Z,39.40
2022-09-26T17:33:27.213Z,39.50
2022-09-26T17:35:53.878Z,39.60
2022-09-26T17:38:20.527Z,39.60
2022-09-26T17:40:47.927Z,39.70
2022-09-26T17:43:14.743Z,39.80
2022-09-26T17:45:46.510Z,39.90
2022-09-26T17:48:16.700Z,39.90
2022-09-26T17:50:43.402Z,40.00
2022-09-26T17:53:12.200Z,40.10
2022-09-26T17:55:38.867Z,40.20
2022-09-26T17:58:10.207Z,40.20
2022-09-26T18:00:40.297Z,40.50
2022-09-26T18:03:08.385Z,40.30
2022-09-26T18:05:36.601Z,40.30
2022-09-26T18:08:24.169Z,40.40
2022-09-26T18:10:52.865Z,40.50
2022-09-26T18:13:24.979Z,40.50
2022-09-26T18:15:55.556Z,40.60
2022-09-26T18:18:23.179Z,40.70
2022-09-26T18:20:49.948Z,40.70
2022-09-26T18:23:20.701Z,40.70
2022-09-26T18:25:48.215Z,40.80
2022-09-26T18:28:16.455Z,40.80
2022-09-26T18:30:44.545Z,40.90
2022-09-26T18:33:11.915Z,40.80
2022-09-26T18:35:41.872Z,40.90
2022-09-26T18:38:08.833Z,40.90
2022-09-26T18:40:39.910Z,41.00
2022-09-26T18:43:07.610Z,41.00
2022-09-26T18:45:35.803Z,41.00
2022-09-26T18:48:12.146Z,41.00
2022-09-26T18:50:39.169Z,41.00
2022-09-26T18:53:19.544Z,41.10
2022-09-26T18:56:04.912Z,41.00
2022-09-26T18:58:32.363Z,41.20
2022-09-26T19:01:07.285Z,41.20
2022-09-26T19:03:39.021Z,41.20
2022-09-26T19:06:13.554Z,41.30
2022-09-26T19:08:41.152Z,41.30
2022-09-26T19:11:16.025Z,41.30
2022-09-26T19:13:44.043Z,41.30
2022-09-26T19:16:10.827Z,41.40
2022-09-26T19:18:37.551Z,41.40
2022-09-26T19:21:05.336Z,41.50
2022-09-26T19:23:35.406Z,41.50
2022-09-26T19:26:02.634Z,41.60
2022-09-26T19:28:38.399Z,41.60
2022-09-26T19:31:05.269Z,41.50
2022-09-26T19:33:32.730Z,41.60
2022-09-26T19:35:59.467Z,41.60
2022-09-26T19:38:26.561Z,41.60
2022-09-26T19:40:53.821Z,41.70
2022-09-26T19:43:21.279Z,41.70
2022-09-26T19:45:51.935Z,41.70
2022-09-26T19:48:20.907Z,41.70
2022-09-26T19:50:48.227Z,41.70
2022-09-26T19:53:16.466Z,41.70
2022-09-26T19:55:43.134Z,41.80
2022-09-26T19:58:38.297Z,41.80
2022-09-26T20:01:14.230Z,41.80
2022-09-26T20:03:41.807Z,41.70
2022-09-26T20:06:19.044Z,41.80
2022-09-26T20:08:45.664Z,41.70
2022-09-26T20:11:13.450Z,41.80
2022-09-26T20:14:00.511Z,41.90
2022-09-26T20:16:27.547Z,41.90
2022-09-26T20:18:55.793Z,41.90
2022-09-26T20:21:24.767Z,41.80
2022-09-26T20:23:51.376Z,42.00
2022-09-26T20:26:18.141Z,42.00
2022-09-26T20:28:44.753Z,42.00
2022-09-26T20:31:22.639Z,42.00
2022-09-26T20:33:51.102Z,42.00
2022-09-26T20:36:31.983Z,42.00
2022-09-26T20:39:00.449Z,42.00
2022-09-26T20:41:30.759Z,42.10
2022-09-26T20:44:01.711Z,42.20
2022-09-26T20:46:33.563Z,42.10
2022-09-26T20:49:02.355Z,42.20
2022-09-26T20:51:29.934Z,42.20
2022-09-26T20:53:59.961Z,42.10
2022-09-26T20:56:26.755Z,42.20
2022-09-26T20:58:53.349Z,42.20
2022-09-26T21:01:20.520Z,42.20
2022-09-26T21:03:48.906Z,42.30
2022-09-26T21:06:19.736Z,42.30
2022-09-26T21:08:46.513Z,42.30
2022-09-26T21:11:15.066Z,42.30
2022-09-26T21:13:42.308Z,42.30
2022-09-26T21:16:13.450Z,42.30
2022-09-26T21:18:40.149Z,42.30
2022-09-26T21:21:08.069Z,42.30
2022-09-26T21:23:41.941Z,42.40
2022-09-26T21:26:17.264Z,42.40
2022-09-26T21:28:43.980Z,42.40
2022-09-26T21:31:11.119Z,42.40
2022-09-26T21:33:38.232Z,42.50
2022-09-26T21:36:04.882Z,42.50
2022-09-26T21:38:31.454Z,42.40
2022-09-26T21:40:58.466Z,42.40
2022-09-26T21:43:26.810Z,42.60
2022-09-26T21:45:53.473Z,42.60
2022-09-26T21:48:20.125Z,42.50
2022-09-26T21:50:52.868Z,42.50
2022-09-26T21:53:24.422Z,42.60
2022-09-26T21:55:53.904Z,42.70
2022-09-26T21:58:26.085Z,42.60
2022-09-26T22:00:52.945Z,42.70
2022-09-26T22:03:19.910Z,42.70
2022-09-26T22:05:46.832Z,42.70
2022-09-26T22:08:13.459Z,42.70
2022-09-26T22:10:40.080Z,42.80
2022-09-26T22:13:06.770Z,42.80
2022-09-26T22:15:33.563Z,42.80
2022-09-26T22:18:00.270Z,42.80
2022-09-26T22:20:26.846Z,42.80
2022-09-26T22:22:53.716Z,42.80
2022-09-26T22:25:20.370Z,42.90
2022-09-26T22:27:47.227Z,42.80
2022-09-26T22:30:14.211Z,42.80
2022-09-26T22:32:40.850Z,42.80
2022-09-26T22:35:07.641Z,42.90
2022-09-26T22:37:34.396Z,42.90
2022-09-26T22:40:01.220Z,42.90
2022-09-26T22:42:27.868Z,43.00
2022-09-26T22:44:54.465Z,42.80
2022-09-26T22:47:21.099Z,43.00
2022-09-26T22:49:47.911Z,43.00
2022-09-26T22:52:14.507Z,43.00
2022-09-26T22:54:41.114Z,43.00
2022-09-26T22:57:08.823Z,43.00
2022-09-26T22:59:35.396Z,43.00
2022-09-26T23:02:01.991Z,43.00
2022-09-26T23:04:46.838Z,43.00
2022-09-26T23:07:14.502Z,43.00
2022-09-26T23:09:41.132Z,43.00
2022-09-26T23:12:07.744Z,43.00
2022-09-26T23:14:34.696Z,43.70
2022-09-26T23:17:01.637Z,43.00
2022-09-26T23:19:28.300Z,43.10
2022-09-26T23:21:54.934Z,43.10
2022-09-26T23:24:21.590Z,43.00
2022-09-26T23:26:48.207Z,43.10
2022-09-26T23:29:14.910Z,43.00
2022-09-26T23:31:41.567Z,43.10
2022-09-26T23:34:08.152Z,43.10
2022-09-26T23:36:34.727Z,43.10
2022-09-26T23:39:01.375Z,43.10
2022-09-26T23:41:28.260Z,43.20
2022-09-26T23:43:54.862Z,43.10
2022-09-26T23:46:21.487Z,43.20
2022-09-26T23:48:48.126Z,43.20
2022-09-26T23:51:15.025Z,43.20
2022-09-26T23:53:41.735Z,43.20
2022-09-26T23:56:09.986Z,43.20
2022-09-26T23:58:37.098Z,43.30
